sensor_id;sensor_type;location;lat;lon;timestamp;P1;durP1;ratioP1;P2;durP2;ratioP2
13441;SDS011;6793;55.662;13.114;2022-09-09T00:00:45;651.60;;;623.95;;
13441;SDS011;6793;55.662;13.114;2022-09-09T00:03:14;726.95;;;695.22;;
13441;SDS011;6793;55.662;13.114;2022-09-09T00:05:44;782.78;;;747.40;;
13441;SDS011;6793;55.662;13.114;2022-09-09T00:08:14;795.50;;;759.72;;
13441;SDS011;6793;55.662;13.114;2022-09-09T00:10:43;922.30;;;879.17;;
13441;SDS011;6793;55.662;13.114;2022-09-09T00:13:15;910.38;;;868.00;;
13441;SDS011;6793;55.662;13.114;2022-09-09T00:15:45;999.90;;;953.00;;
13441;SDS011;6793;55.662;13.114;2022-09-09T00:18:17;921.03;;;877.92;;
13441;SDS011;6793;55.662;13.114;2022-09-09T00:20:47;971.72;;;926.28;;
13441;SDS011;6793;55.662;13.114;2022-09-09T00:23:19;932.95;;;888.95;;
13441;SDS011;6793;55.662;13.114;2022-09-09T00:30:44;937.67;;;893.15;;
13441;SDS011;6793;55.662;13.114;2022-09-09T00:33:13;953.83;;;908.67;;
13441;SDS011;6793;55.662;13.114;2022-09-09T00:35:44;1007.50;;;959.40;;
13441;SDS011;6793;55.662;13.114;2022-09-09T00:38:12;923.75;;;879.55;;
13441;SDS011;6793;55.662;13.114;2022-09-09T00:40:41;840.50;;;800.38;;
13441;SDS011;6793;55.662;13.114;2022-09-09T00:43:20;945.35;;;899.90;;
13441;SDS011;6793;55.662;13.114;2022-09-09T00:45:59;883.75;;;840.63;;
13441;SDS011;6793;55.662;13.114;2022-09-09T00:48:31;1153.10;;;999.90;;
13441;SDS011;6793;55.662;13.114;2022-09-09T00:51:02;1242.22;;;999.90;;
13441;SDS011;6793;55.662;13.114;2022-09-09T00:53:35;1306.88;;;999.90;;
13441;SDS011;6793;55.662;13.114;2022-09-09T00:56:09;1275.18;;;999.90;;
13441;SDS011;6793;55.662;13.114;2022-09-09T00:58:40;1348.30;;;999.90;;
13441;SDS011;6793;55.662;13.114;2022-09-09T01:01:10;1271.05;;;999.90;;
13441;SDS011;6793;55.662;13.114;2022-09-09T06:12:48;1523.83;;;999.90;;
13441;SDS011;6793;55.662;13.114;2022-09-09T06:15:18;1525.50;;;999.90;;
13441;SDS011;6793;55.662;13.114;2022-09-09T06:17:46;1527.53;;;999.90;;
13441;SDS011;6793;55.662;13.114;2022-09-09T06:20:14;1527.32;;;999.90;;
13441;SDS011;6793;55.662;13.114;2022-09-09T06:22:41;1519.10;;;999.90;;
13441;SDS011;6793;55.662;13.114;2022-09-09T06:25:11;1520.43;;;999.90;;
13441;SDS011;6793;55.662;13.114;2022-09-09T06:27:38;1495.85;;;999.90;;
13441;SDS011;6793;55.662;13.114;2022-09-09T06:30:09;1525.60;;;999.90;;
13441;SDS011;6793;55.662;13.114;2022-09-09T06:32:36;1491.55;;;999.90;;
13441;SDS011;6793;55.662;13.114;2022-09-09T06:35:04;1507.35;;;999.90;;
13441;SDS011;6793;55.662;13.114;2022-09-09T06:37:32;1512.13;;;999.90;;
13441;SDS011;6793;55.662;13.114;2022-09-09T06:39:59;1502.93;;;999.90;;
13441;SDS011;6793;55.662;13.114;2022-09-09T06:42:27;1504.60;;;999.90;;
13441;SDS011;6793;55.662;13.114;2022-09-09T06:44:54;1501.80;;;999.90;;
13441;SDS011;6793;55.662;13.114;2022-09-09T06:47:22;1497.28;;;999.90;;
13441;SDS011;6793;55.662;13.114;2022-09-09T06:49:49;1496.22;;;999.90;;
13441;SDS011;6793;55.662;13.114;2022-09-09T06:52:17;1501.47;;;999.90;;
13441;SDS011;6793;55.662;13.114;2022-09-09T06:54:44;1498.93;;;999.90;;
13441;SDS011;6793;55.662;13.114;2022-09-09T06:57:11;1498.95;;;999.90;;
13441;SDS011;6793;55.662;13.114;2022-09-09T06:59:38;1505.53;;;999.90;;
13441;SDS011;6793;55.662;13.114;2022-09-09T07:02:06;1515.47;;;999.90;;
13441;SDS011;6793;55.662;13.114;2022-09-09T07:04:35;1517.97;;;999.90;;
13441;SDS011;6793;55.662;13.114;2022-09-09T07:07:03;1533.57;;;999.90;;
13441;SDS011;6793;55.662;13.114;2022-09-09T07:09:30;1534.57;;;999.90;;
13441;SDS011;6793;55.662;13.114;2022-09-09T07:11:57;1545.93;;;999.90;;
13441;SDS011;6793;55.662;13.114;2022-09-09T07:14:25;1549.75;;;999.90;;
13441;SDS011;6793;55.662;13.114;2022-09-09T07:16:52;1565.13;;;999.90;;
13441;SDS011;6793;55.662;13.114;2022-09-09T07:19:19;1559.95;;;999.90;;
13441;SDS011;6793;55.662;13.114;2022-09-09T07:21:48;1561.95;;;999.90;;
13441;SDS011;6793;55.662;13.114;2022-09-09T07:24:15;1557.22;;;999.90;;
13441;SDS011;6793;55.662;13.114;2022-09-09T07:26:42;1564.43;;;999.90;;
13441;SDS011;6793;55.662;13.114;2022-09-09T07:29:11;1561.63;;;999.90;;
13441;SDS011;6793;55.662;13.114;2022-09-09T07:31:39;1560.70;;;999.90;;
13441;SDS011;6793;55.662;13.114;2022-09-09T07:34:06;1563.13;;;999.90;;
13441;SDS011;6793;55.662;13.114;2022-09-09T07:36:34;1560.10;;;999.90;;
13441;SDS011;6793;55.662;13.114;2022-09-09T07:39:03;1560.30;;;999.90;;
13441;SDS011;6793;55.662;13.114;2022-09-09T07:41:31;1563.82;;;999.90;;
13441;SDS011;6793;55.662;13.114;2022-09-09T07:43:59;1555.88;;;999.90;;
13441;SDS011;6793;55.662;13.114;2022-09-09T07:46:27;1558.05;;;999.90;;
13441;SDS011;6793;55.662;13.114;2022-09-09T07:48:54;1548.78;;;999.90;;
13441;SDS011;6793;55.662;13.114;2022-09-09T07:51:24;1545.53;;;999.90;;
13441;SDS011;6793;55.662;13.114;2022-09-09T07:53:52;1542.50;;;999.90;;
13441;SDS011;6793;55.662;13.114;2022-09-09T07:56:21;1529.03;;;999.90;;
13441;SDS011;6793;55.662;13.114;2022-09-09T07:58:48;1516.93;;;999.90;;
13441;SDS011;6793;55.662;13.114;2022-09-09T21:03:56;1479.28;;;999.90;;
13441;SDS011;6793;55.662;13.114;2022-09-09T21:06:24;1477.65;;;999.90;;
13441;SDS011;6793;55.662;13.114;2022-09-09T21:08:51;1467.25;;;999.90;;
13441;SDS011;6793;55.662;13.114;2022-09-09T21:11:18;1466.00;;;999.90;;
13441;SDS011;6793;55.662;13.114;2022-09-09T21:13:45;1483.38;;;999.90;;
13441;SDS011;6793;55.662;13.114;2022-09-09T21:16:13;1472.88;;;999.90;;
13441;SDS011;6793;55.662;13.114;2022-09-09T21:18:43;1477.93;;;999.90;;
13441;SDS011;6793;55.662;13.114;2022-09-09T21:21:12;1469.70;;;999.90;;
13441;SDS011;6793;55.662;13.114;2022-09-09T21:23:39;1449.05;;;999.90;;
13441;SDS011;6793;55.662;13.114;2022-09-09T21:26:06;1470.75;;;999.90;;
13441;SDS011;6793;55.662;13.114;2022-09-09T21:28:34;1483.10;;;999.90;;
13441;SDS011;6793;55.662;13.114;2022-09-09T21:31:01;1480.55;;;999.90;;
13441;SDS011;6793;55.662;13.114;2022-09-09T21:33:30;1481.40;;;999.90;;
13441;SDS011;6793;55.662;13.114;2022-09-09T21:36:00;1484.47;;;999.90;;
13441;SDS011;6793;55.662;13.114;2022-09-09T21:38:29;1496.82;;;999.90;;
13441;SDS011;6793;55.662;13.114;2022-09-09T21:40:57;1494.95;;;999.90;;
13441;SDS011;6793;55.662;13.114;2022-09-09T21:43:27;1495.18;;;999.90;;
